Time;durP1;ratioP1;P1;durP2;ratioP2;P2;SDS_P1;SDS_P2;PMS_P1;PMS_P2;Temp;Humidity;BMP_temperature;BMP_pressure;BME280_temperature;BME280_humidity;BME280_pressure;Samples;Min_cycle;Max_cycle;Signal;HPM_P1;HPM_P2
2023/12/06 00:01:38;;;;;;;7.75;6.60;;;;;6.90;97755.00;;;;5040512;28;20071;-61
2023/12/06 00:04:05;;;;;;;8.13;6.28;;;;;6.90;97753.00;;;;5033429;28;20068;-63
2023/12/06 00:06:40;;;;;;;8.48;6.28;;;;;6.90;97750.00;;;;5033693;28;20060;-60
2023/12/06 00:09:07;;;;;;;6.85;5.45;;;;;6.90;97755.00;;;;5034983;28;20124;-61
2023/12/06 00:11:33;;;;;;;7.15;5.80;;;;;6.90;97746.00;;;;5034600;28;20048;-62
2023/12/06 00:14:00;;;;;;;7.80;5.75;;;;;7.00;97747.00;;;;5034254;28;20391;-62
2023/12/06 00:16:26;;;;;;;7.15;5.93;;;;;7.00;97741.00;;;;5034757;28;20402;-61
2023/12/06 00:18:54;;;;;;;7.53;5.88;;;;;7.00;97742.00;;;;5034780;28;20049;-61
2023/12/06 00:21:22;;;;;;;7.97;5.18;;;;;7.00;97740.00;;;;5034460;28;20042;-64
2023/12/06 00:23:49;;;;;;;7.57;5.90;;;;;7.00;97754.00;;;;5034016;28;20048;-62
2023/12/06 00:26:15;;;;;;;9.82;6.00;;;;;6.90;97747.00;;;;5034443;28;20504;-62
2023/12/06 00:28:42;;;;;;;6.68;5.03;;;;;6.90;97750.00;;;;5034652;28;20041;-62
2023/12/06 00:31:09;;;;;;;5.78;4.85;;;;;6.90;97746.00;;;;5034001;28;20112;-61
2023/12/06 00:33:35;;;;;;;8.27;6.22;;;;;6.90;97750.00;;;;5033607;28;20056;-62
2023/12/06 00:36:03;;;;;;;6.07;5.00;;;;;6.90;97743.00;;;;5034414;28;20494;-61
2023/12/06 00:38:31;;;;;;;7.13;5.72;;;;;6.90;97759.00;;;;5034637;28;20041;-61
2023/12/06 00:40:59;;;;;;;7.50;5.75;;;;;6.90;97753.00;;;;5033041;28;20041;-62
2023/12/06 00:43:26;;;;;;;7.60;5.78;;;;;6.90;97751.00;;;;5033456;28;20513;-61
2023/12/06 00:45:53;;;;;;;7.55;5.55;;;;;7.00;97752.00;;;;5034317;28;20052;-61
2023/12/06 00:48:20;;;;;;;6.75;5.75;;;;;7.00;97751.00;;;;5032916;28;20095;-62
2023/12/06 00:50:47;;;;;;;8.98;6.35;;;;;7.00;97757.00;;;;5034084;28;20117;-61
2023/12/06 00:53:13;;;;;;;7.93;6.15;;;;;7.00;97766.00;;;;5032688;28;20125;-62
2023/12/06 00:55:40;;;;;;;6.97;6.25;;;;;7.00;97766.00;;;;5033245;28;20535;-61
2023/12/06 00:58:13;;;;;;;8.55;6.93;;;;;7.00;97756.00;;;;5034034;28;20454;-62
2023/12/06 01:00:39;;;;;;;9.35;6.95;;;;;7.00;97769.00;;;;5033907;28;20498;-61
2023/12/06 01:03:06;;;;;;;8.65;6.35;;;;;7.00;97760.00;;;;5033757;28;20049;-61
2023/12/06 01:05:33;;;;;;;8.63;6.95;;;;;7.00;97750.00;;;;5032932;28;20410;-62
2023/12/06 01:08:02;;;;;;;10.05;7.22;;;;;7.00;97759.00;;;;5033529;28;20052;-62
2023/12/06 01:10:29;;;;;;;10.55;7.80;;;;;7.00;97767.00;;;;5032728;28;20413;-61
2023/12/06 01:12:56;;;;;;;9.43;7.78;;;;;7.00;97762.00;;;;5032309;28;20045;-61
2023/12/06 01:15:23;;;;;;;10.00;7.40;;;;;7.00;97770.00;;;;5033054;28;20045;-62
2023/12/06 01:17:49;;;;;;;10.15;7.40;;;;;7.10;97777.00;;;;5033688;28;20056;-61
2023/12/06 01:20:16;;;;;;;10.27;7.88;;;;;7.10;97771.00;;;;5033498;28;20042;-61
2023/12/06 01:22:45;;;;;;;10.75;7.85;;;;;7.10;97773.00;;;;5033338;28;20497;-61
2023/12/06 01:25:12;;;;;;;10.15;8.07;;;;;7.10;97777.00;;;;5032681;28;20069;-60
2023/12/06 01:27:38;;;;;;;13.35;8.48;;;;;7.10;97774.00;;;;5032062;28;20057;-60
2023/12/06 01:30:05;;;;;;;11.00;8.57;;;;;7.10;97781.00;;;;5033334;28;20486;-61
2023/12/06 01:32:39;;;;;;;14.53;8.57;;;;;7.10;97785.00;;;;5033303;28;20041;-61
2023/12/06 01:35:07;;;;;;;10.80;7.63;;;;;7.10;97787.00;;;;5032602;28;20129;-62
2023/12/06 01:37:33;;;;;;;9.88;7.78;;;;;7.10;97786.00;;;;5033134;28;20087;-62
2023/12/06 01:40:00;;;;;;;10.00;7.38;;;;;7.10;97792.00;;;;5033042;28;20124;-62
2023/12/06 01:42:27;;;;;;;9.13;7.55;;;;;7.10;97794.00;;;;5032860;28;20112;-61
2023/12/06 01:44:54;;;;;;;7.85;6.65;;;;;7.00;97794.00;;;;5031426;28;20041;-62
2023/12/06 01:47:22;;;;;;;9.32;7.07;;;;;7.00;97792.00;;;;5032392;28;20478;-60
2023/12/06 01:49:54;;;;;;;10.65;7.90;;;;;7.00;97795.00;;;;5033368;28;20052;-61
2023/12/06 01:52:24;;;;;;;9.02;6.90;;;;;7.10;97797.00;;;;5032364;28;20041;-62
2023/12/06 01:54:51;;;;;;;9.48;6.95;;;;;7.10;97794.00;;;;5033664;28;20494;-62
2023/12/06 01:57:18;;;;;;;10.68;7.25;;;;;7.10;97795.00;;;;5033463;28;20103;-63
2023/12/06 01:59:47;;;;;;;15.95;7.47;;;;;7.00;97800.00;;;;5032461;28;20120;-62
2023/12/06 02:02:14;;;;;;;11.15;6.70;;;;;7.10;97795.00;;;;5032442;28;20572;-61
2023/12/06 02:04:40;;;;;;;10.15;7.25;;;;;7.10;97800.00;;;;5031862;28;20045;-62
2023/12/06 02:07:07;;;;;;;9.60;7.03;;;;;7.10;97803.00;;;;5032243;28;20474;-62
2023/12/06 02:09:34;;;;;;;10.30;6.63;;;;;7.10;97801.00;;;;5032416;28;20408;-59
2023/12/06 02:12:00;;;;;;;9.02;7.03;;;;;7.10;97805.00;;;;5032119;28;20116;-63
2023/12/06 02:14:33;;;;;;;8.48;6.53;;;;;7.10;97799.00;;;;5031478;28;20049;-61
2023/12/06 02:17:04;;;;;;;8.05;6.57;;;;;7.10;97812.00;;;;5032282;28;20045;-59
2023/12/06 02:19:31;;;;;;;9.68;6.85;;;;;7.10;97810.00;;;;5032250;28;20080;-60
2023/12/06 02:21:58;;;;;;;7.68;6.30;;;;;7.10;97810.00;;;;5032548;28;20063;-60
2023/12/06 02:24:28;;;;;;;9.15;6.85;;;;;7.10;97805.00;;;;5030735;28;20072;-61
2023/12/06 02:26:55;;;;;;;12.15;6.00;;;;;7.20;97807.00;;;;5030764;28;20049;-61
2023/12/06 02:29:24;;;;;;;8.13;5.60;;;;;7.10;97814.00;;;;5032180;28;20049;-61
2023/12/06 02:31:51;;;;;;;7.40;6.38;;;;;7.10;97813.00;;;;5031821;28;20045;-61
2023/12/06 02:34:22;;;;;;;6.82;6.00;;;;;7.20;97818.00;;;;5030328;28;20050;-61
2023/12/06 02:36:53;;;;;;;7.28;6.15;;;;;7.20;97812.00;;;;5032095;28;20183;-59
2023/12/06 02:39:20;;;;;;;6.28;5.65;;;;;7.20;97812.00;;;;5032235;28;20049;-59
2023/12/06 02:41:47;;;;;;;6.90;6.07;;;;;7.10;97816.00;;;;5031834;28;20582;-60
2023/12/06 02:44:13;;;;;;;6.40;5.47;;;;;7.20;97820.00;;;;5031307;28;20041;-62
2023/12/06 02:46:41;;;;;;;7.93;5.50;;;;;7.20;97825.00;;;;5032129;28;20456;-62
2023/12/06 02:49:07;;;;;;;7.60;5.20;;;;;7.20;97815.00;;;;5030812;28;20459;-63
2023/12/06 02:51:34;;;;;;;6.05;5.15;;;;;7.20;97818.00;;;;5031783;28;20469;-62
2023/12/06 02:54:01;;;;;;;6.57;5.15;;;;;7.20;97820.00;;;;5030016;28;20049;-63
2023/12/06 02:56:27;;;;;;;7.20;5.47;;;;;7.20;97829.00;;;;5033954;28;20132;-63
2023/12/06 02:58:54;;;;;;;6.07;4.85;;;;;7.20;97821.00;;;;5035810;28;20045;-63
2023/12/06 03:01:20;;;;;;;9.02;4.97;;;;;7.20;97822.00;;;;5035760;28;20069;-63
2023/12/06 03:03:47;;;;;;;5.20;4.43;;;;;7.20;97822.00;;;;5035158;28;20064;-63
2023/12/06 03:06:14;;;;;;;7.07;5.05;;;;;7.20;97828.00;;;;5035654;28;20046;-62
2023/12/06 03:08:40;;;;;;;4.90;4.40;;;;;7.20;97824.00;;;;5035481;28;20413;-60
2023/12/06 03:11:07;;;;;;;4.78;4.28;;;;;7.10;97823.00;;;;5035800;28;20503;-61
2023/12/06 03:13:33;;;;;;;6.60;4.55;;;;;7.10;97831.00;;;;5034919;28;20072;-60
2023/12/06 03:16:00;;;;;;;4.75;4.18;;;;;7.10;97821.00;;;;5035475;28;20132;-63
2023/12/06 03:18:27;;;;;;;4.75;4.18;;;;;7.10;97823.00;;;;5035857;28;20056;-60
2023/12/06 03:20:53;;;;;;;5.32;4.82;;;;;7.20;97823.00;;;;5035433;28;20038;-60
2023/12/06 03:23:20;;;;;;;5.47;4.20;;;;;7.10;97824.00;;;;5035570;28;20038;-62
2023/12/06 03:25:46;;;;;;;5.90;4.68;;;;;7.10;97825.00;;;;5034794;28;20487;-61
2023/12/06 03:28:13;;;;;;;5.10;4.32;;;;;7.10;97837.00;;;;5035731;28;20383;-64
2023/12/06 03:30:40;;;;;;;4.53;4.05;;;;;7.10;97838.00;;;;5035069;28;20148;-64
2023/12/06 03:33:06;;;;;;;4.32;3.92;;;;;7.10;97840.00;;;;5034054;28;20052;-63
2023/12/06 03:35:33;;;;;;;4.93;4.43;;;;;7.00;97830.00;;;;5034417;28;20053;-64
2023/12/06 03:38:00;;;;;;;5.80;4.80;;;;;7.10;97839.00;;;;5035087;28;20517;-64
2023/12/06 03:40:26;;;;;;;6.05;4.32;;;;;7.10;97842.00;;;;5035138;28;20556;-64
2023/12/06 03:42:53;;;;;;;5.72;5.13;;;;;7.10;97840.00;;;;5035286;28;20494;-64
2023/12/06 03:45:21;;;;;;;4.97;4.47;;;;;7.00;97836.00;;;;5034417;28;20045;-64
2023/12/06 03:47:47;;;;;;;6.10;4.75;;;;;7.00;97838.00;;;;5034886;28;20410;-64
2023/12/06 03:50:14;;;;;;;5.95;4.90;;;;;6.90;97835.00;;;;5034917;28;20129;-64
2023/12/06 03:52:41;;;;;;;7.32;4.78;;;;;6.90;97838.00;;;;5033680;28;20069;-64
2023/12/06 03:55:07;;;;;;;6.85;4.55;;;;;6.90;97838.00;;;;5034180;28;20041;-63
2023/12/06 03:57:34;;;;;;;5.63;4.80;;;;;6.90;97842.00;;;;5035260;28;20077;-64
2023/12/06 04:00:01;;;;;;;6.65;4.50;;;;;6.80;97839.00;;;;5034850;28;20065;-64
2023/12/06 04:02:36;;;;;;;5.55;5.05;;;;;6.80;97841.00;;;;5035025;28;20041;-64
2023/12/06 04:05:03;;;;;;;5.95;5.03;;;;;6.70;97838.00;;;;5032742;28;20053;-62
2023/12/06 04:07:33;;;;;;;7.03;4.28;;;;;6.70;97843.00;;;;5033667;28;20049;-63
2023/12/06 04:09:59;;;;;;;5.88;4.63;;;;;6.70;97844.00;;;;5033591;28;20058;-64
2023/12/06 04:12:26;;;;;;;6.47;4.78;;;;;6.70;97844.00;;;;5034507;28;20479;-63
2023/12/06 04:14:53;;;;;;;7.45;5.18;;;;;6.70;97845.00;;;;5033860;28;20124;-64
2023/12/06 04:17:20;;;;;;;6.85;5.28;;;;;6.70;97843.00;;;;5016475;28;20060;-64
2023/12/06 04:19:47;;;;;;;6.07;4.72;;;;;6.60;97839.00;;;;5034351;28;20056;-64
2023/12/06 04:22:14;;;;;;;7.80;5.78;;;;;6.60;97848.00;;;;5034025;28;20486;-62
2023/12/06 04:24:40;;;;;;;5.57;4.85;;;;;6.60;97853.00;;;;5033647;28;20494;-64
2023/12/06 04:27:07;;;;;;;6.05;5.28;;;;;6.60;97855.00;;;;5034119;28;20458;-64
2023/12/06 04:29:34;;;;;;;6.20;4.88;;;;;6.60;97862.00;;;;5034338;28;20231;-64
2023/12/06 04:32:00;;;;;;;6.10;5.50;;;;;6.50;97857.00;;;;5033985;28;20496;-63
2023/12/06 04:34:27;;;;;;;7.65;5.63;;;;;6.50;97869.00;;;;5032351;28;20051;-63
2023/12/06 04:36:54;;;;;;;7.15;4.57;;;;;6.50;97872.00;;;;5034047;28;20041;-63
2023/12/06 04:39:21;;;;;;;6.65;5.30;;;;;6.50;97880.00;;;;5034143;28;20494;-63
2023/12/06 04:41:48;;;;;;;7.82;5.63;;;;;6.50;97877.00;;;;5034289;28;20136;-63
2023/12/06 04:44:15;;;;;;;7.15;5.13;;;;;6.50;97881.00;;;;5032298;28;20168;-62
2023/12/06 04:46:41;;;;;;;7.80;6.00;;;;;6.50;97882.00;;;;5034493;28;20084;-63
2023/12/06 04:49:08;;;;;;;5.95;5.00;;;;;6.50;97880.00;;;;5035356;28;20042;-63
2023/12/06 04:51:35;;;;;;;8.73;6.18;;;;;6.40;97891.00;;;;5034747;28;20096;-62
2023/12/06 04:54:01;;;;;;;6.47;5.47;;;;;6.40;97893.00;;;;5034185;28;20049;-63
2023/12/06 04:56:28;;;;;;;7.35;5.45;;;;;6.30;97888.00;;;;5034919;28;20045;-64
2023/12/06 04:58:54;;;;;;;7.57;5.93;;;;;6.30;97904.00;;;;5033268;28;20504;-63
2023/12/06 05:01:21;;;;;;;9.35;5.50;;;;;6.20;97898.00;;;;5034650;28;20120;-63
2023/12/06 05:03:48;;;;;;;6.43;5.55;;;;;6.20;97897.00;;;;5034071;28;20120;-63
2023/12/06 05:06:15;;;;;;;7.15;5.72;;;;;6.20;97913.00;;;;5034137;28;20049;-61
2023/12/06 05:08:42;;;;;;;9.05;6.15;;;;;6.20;97907.00;;;;5033074;28;20410;-63
2023/12/06 05:11:08;;;;;;;6.80;5.38;;;;;6.10;97916.00;;;;5034235;28;20447;-63
2023/12/06 05:13:35;;;;;;;7.47;5.70;;;;;6.10;97927.00;;;;5033097;28;20554;-63
2023/12/06 05:16:01;;;;;;;8.63;6.05;;;;;6.10;97929.00;;;;5033592;28;20491;-63
2023/12/06 05:18:28;;;;;;;7.63;6.20;;;;;6.00;97927.00;;;;5033307;28;20049;-63
2023/12/06 05:20:55;;;;;;;6.85;5.35;;;;;5.90;97933.00;;;;5033231;28;20494;-63
2023/12/06 05:23:22;;;;;;;7.13;5.68;;;;;5.80;97927.00;;;;5031577;28;20057;-60
2023/12/06 05:25:48;;;;;;;6.70;5.40;;;;;5.70;97931.00;;;;5032970;28;20095;-63
2023/12/06 05:28:15;;;;;;;6.20;4.60;;;;;5.60;97947.00;;;;5033180;28;20049;-63
2023/12/06 05:30:42;;;;;;;5.28;4.78;;;;;5.50;97942.00;;;;5033215;28;20091;-61
2023/12/06 05:33:08;;;;;;;7.13;5.45;;;;;5.50;97941.00;;;;5031940;28;20490;-62
2023/12/06 05:35:35;;;;;;;5.82;5.00;;;;;5.50;97951.00;;;;5032736;28;20064;-64
2023/12/06 05:38:02;;;;;;;7.05;5.47;;;;;5.50;97956.00;;;;5033204;28;20107;-64
2023/12/06 05:40:28;;;;;;;6.88;5.28;;;;;5.50;97961.00;;;;5031780;28;20053;-63
2023/12/06 05:42:55;;;;;;;6.28;5.35;;;;;5.40;97969.00;;;;5032797;28;20087;-64
2023/12/06 05:45:22;;;;;;;5.90;5.30;;;;;5.40;97962.00;;;;5032145;28;20041;-63
2023/12/06 05:47:49;;;;;;;5.85;5.15;;;;;5.40;97961.00;;;;5032816;28;20038;-64
2023/12/06 05:50:15;;;;;;;5.95;4.82;;;;;5.40;97969.00;;;;5032703;28;20091;-64
2023/12/06 05:52:42;;;;;;;7.03;5.55;;;;;5.40;97981.00;;;;5032668;28;20117;-64
2023/12/06 05:55:09;;;;;;;5.57;5.00;;;;;5.30;97975.00;;;;5030865;28;20164;-63
2023/12/06 05:57:35;;;;;;;7.18;5.35;;;;;5.30;97985.00;;;;5031410;28;20124;-63
2023/12/06 06:00:05;;;;;;;6.07;5.20;;;;;5.30;97985.00;;;;5032992;28;20049;-64
2023/12/06 06:02:35;;;;;;;6.97;6.22;;;;;5.40;97989.00;;;;5032693;28;20132;-63
2023/12/06 06:05:03;;;;;;;7.15;5.53;;;;;5.40;97986.00;;;;5032454;28;20051;-63
2023/12/06 06:07:29;;;;;;;8.30;6.18;;;;;5.40;97991.00;;;;5032999;28;20064;-63
2023/12/06 06:09:56;;;;;;;7.35;5.68;;;;;5.40;97992.00;;;;5032287;28;20053;-64
2023/12/06 06:12:30;;;;;;;8.35;5.82;;;;;5.50;97995.00;;;;5032448;28;20487;-63
2023/12/06 06:14:56;;;;;;;6.35;5.63;;;;;5.50;97994.00;;;;5031881;28;20494;-63
2023/12/06 06:17:23;;;;;;;7.65;5.43;;;;;5.50;97996.00;;;;5032384;28;20051;-61
2023/12/06 06:19:50;;;;;;;7.50;5.93;;;;;5.50;97998.00;;;;5032349;28;20045;-63
2023/12/06 06:22:17;;;;;;;8.40;6.35;;;;;5.50;97999.00;;;;5032294;28;20052;-62
2023/12/06 06:24:44;;;;;;;8.57;6.63;;;;;5.50;98004.00;;;;5031647;28;20046;-63
2023/12/06 06:27:10;;;;;;;8.55;6.57;;;;;5.50;98005.00;;;;5032113;28;20128;-64
2023/12/06 06:29:37;;;;;;;8.77;6.75;;;;;5.50;98003.00;;;;5030564;28;20072;-64
2023/12/06 06:32:04;;;;;;;10.10;7.38;;;;;5.50;98009.00;;;;5031249;28;20498;-64
2023/12/06 06:34:30;;;;;;;8.75;6.85;;;;;5.40;98013.00;;;;5031613;28;20037;-64
2023/12/06 06:36:57;;;;;;;9.02;7.72;;;;;5.40;98017.00;;;;5031985;28;20050;-64
2023/12/06 06:39:23;;;;;;;11.18;7.68;;;;;5.40;98013.00;;;;5032158;28;20128;-63
2023/12/06 06:41:51;;;;;;;10.45;7.60;;;;;5.50;98012.00;;;;5032018;28;20498;-63
2023/12/06 06:44:18;;;;;;;12.70;9.13;;;;;5.50;98021.00;;;;5031661;28;20116;-64
2023/12/06 06:46:45;;;;;;;13.63;10.15;;;;;5.60;98035.00;;;;5032059;28;20069;-64
2023/12/06 06:49:13;;;;;;;12.73;9.50;;;;;5.70;98030.00;;;;5032017;28;20042;-64
2023/12/06 06:51:40;;;;;;;14.82;10.50;;;;;5.70;98031.00;;;;5031811;28;20041;-63
2023/12/06 06:54:07;;;;;;;14.20;9.73;;;;;5.70;98036.00;;;;5031341;28;20045;-64
2023/12/06 06:56:33;;;;;;;16.90;10.82;;;;;5.70;98041.00;;;;5031965;28;20124;-64
2023/12/06 06:59:00;;;;;;;23.83;12.38;;;;;5.60;98048.00;;;;5032112;28;20138;-63
2023/12/06 07:01:27;;;;;;;19.73;12.32;;;;;5.70;98047.00;;;;5032298;28;20076;-64
2023/12/06 07:03:54;;;;;;;19.45;12.32;;;;;5.70;98063.00;;;;5031426;28;20505;-64
2023/12/06 07:06:21;;;;;;;19.92;12.57;;;;;5.70;98056.00;;;;5031693;28;20053;-64
2023/12/06 07:08:49;;;;;;;27.77;14.85;;;;;5.70;98064.00;;;;5031761;28;20045;-62
2023/12/06 07:11:16;;;;;;;15.85;10.75;;;;;5.70;98065.00;;;;5031448;28;20107;-64
2023/12/06 07:13:43;;;;;;;17.20;12.88;;;;;5.70;98070.00;;;;5030772;28;20046;-63
2023/12/06 07:16:12;;;;;;;15.70;11.13;;;;;5.60;98070.00;;;;5031715;28;20073;-64
2023/12/06 07:18:39;;;;;;;12.75;9.75;;;;;5.60;98078.00;;;;5031520;28;20553;-64
2023/12/06 07:21:05;;;;;;;14.93;10.27;;;;;5.60;98079.00;;;;5031891;28;20045;-64
2023/12/06 07:23:32;;;;;;;13.20;9.75;;;;;5.60;98088.00;;;;5031091;28;20069;-64
2023/12/06 07:25:59;;;;;;;19.50;10.70;;;;;5.60;98083.00;;;;5031551;28;20048;-64
2023/12/06 07:28:25;;;;;;;12.85;10.43;;;;;5.70;98087.00;;;;5031777;28;20500;-64
2023/12/06 07:30:53;;;;;;;14.82;11.18;;;;;5.70;98092.00;;;;5030260;28;20046;-64
2023/12/06 07:33:20;;;;;;;13.50;10.50;;;;;5.70;98096.00;;;;5031220;28;20089;-64
2023/12/06 07:35:47;;;;;;;12.80;10.32;;;;;5.60;98099.00;;;;5031231;28;20053;-63
2023/12/06 07:38:13;;;;;;;14.10;10.68;;;;;5.60;98103.00;;;;5031564;28;20048;-60
2023/12/06 07:40:40;;;;;;;15.70;11.65;;;;;5.70;98107.00;;;;5031508;28;20049;-60
2023/12/06 07:43:07;;;;;;;13.88;11.02;;;;;5.70;98102.00;;;;5034312;28;20048;-61
2023/12/06 07:45:33;;;;;;;14.05;10.82;;;;;5.80;98109.00;;;;5034379;28;20051;-62
2023/12/06 07:48:02;;;;;;;14.40;11.18;;;;;5.80;98112.00;;;;5035164;28;20045;-60
2023/12/06 07:50:29;;;;;;;15.13;11.00;;;;;5.80;98116.00;;;;5035046;28;20421;-61
2023/12/06 07:52:55;;;;;;;14.80;10.93;;;;;5.80;98119.00;;;;5034850;28;20124;-61
2023/12/06 07:55:22;;;;;;;15.43;11.68;;;;;5.80;98124.00;;;;5032996;28;20053;-61
2023/12/06 07:57:53;;;;;;;16.98;11.50;;;;;5.80;98134.00;;;;5034923;28;20049;-61
2023/12/06 08:00:19;;;;;;;15.13;10.98;;;;;5.80;98132.00;;;;5034971;28;20099;-60
2023/12/06 08:02:46;;;;;;;14.93;11.95;;;;;5.80;98134.00;;;;5035066;28;20049;-61
2023/12/06 08:05:13;;;;;;;15.07;11.60;;;;;5.80;98137.00;;;;5034121;28;20104;-60
2023/12/06 08:07:40;;;;;;;15.65;10.75;;;;;5.80;98142.00;;;;5034541;28;20107;-61
2023/12/06 08:10:12;;;;;;;16.08;11.50;;;;;5.90;98141.00;;;;5034991;28;20100;-60
2023/12/06 08:12:39;;;;;;;15.93;12.38;;;;;5.80;98138.00;;;;5034503;28;20041;-59
2023/12/06 08:15:07;;;;;;;16.63;11.55;;;;;5.80;98133.00;;;;5034021;28;20053;-60
2023/12/06 08:17:33;;;;;;;15.55;11.38;;;;;5.70;98142.00;;;;5034419;28;20041;-60
2023/12/06 08:20:00;;;;;;;16.35;11.82;;;;;5.80;98146.00;;;;5034372;28;20055;-61
2023/12/06 08:22:27;;;;;;;15.07;11.20;;;;;5.70;98145.00;;;;5032958;28;20430;-60
2023/12/06 08:24:59;;;;;;;15.02;11.40;;;;;5.70;98148.00;;;;5033734;28;20048;-59
2023/12/06 08:27:29;;;;;;;13.40;10.23;;;;;5.70;98153.00;;;;5032839;28;20070;-60
2023/12/06 08:29:57;;;;;;;15.73;10.00;;;;;5.70;98154.00;;;;5034296;28;20050;-60
2023/12/06 08:32:25;;;;;;;13.98;10.15;;;;;5.70;98153.00;;;;5034092;28;20502;-59
2023/12/06 08:34:52;;;;;;;13.60;10.63;;;;;5.70;98156.00;;;;5033462;28;20063;-61
2023/12/06 08:37:19;;;;;;;13.90;9.93;;;;;5.80;98157.00;;;;5033985;28;20115;-61
2023/12/06 08:39:46;;;;;;;11.88;9.15;;;;;5.80;98161.00;;;;5034096;28;20072;-61
2023/12/06 08:42:14;;;;;;;13.85;10.63;;;;;5.80;98161.00;;;;5033963;28;20394;-61
2023/12/06 08:44:42;;;;;;;13.07;10.18;;;;;5.80;98175.00;;;;5032166;28;20422;-61
2023/12/06 08:47:09;;;;;;;15.07;10.00;;;;;5.80;98178.00;;;;5033765;28;20091;-62
2023/12/06 08:49:37;;;;;;;12.77;10.13;;;;;5.80;98176.00;;;;5033910;28;20045;-64
2023/12/06 08:52:05;;;;;;;17.55;11.73;;;;;5.80;98179.00;;;;5033769;28;20466;-64
2023/12/06 08:54:33;;;;;;;19.80;15.13;;;;;5.90;98192.00;;;;5032755;28;20049;-65
2023/12/06 08:57:00;;;;;;;26.02;20.83;;;;;5.90;98187.00;;;;5033625;28;20053;-65
2023/12/06 08:59:27;;;;;;;16.65;12.88;;;;;5.90;98186.00;;;;5033888;28;20057;-65
2023/12/06 09:01:54;;;;;;;13.95;11.07;;;;;5.90;98192.00;;;;5033566;28;20055;-65
2023/12/06 09:04:20;;;;;;;12.35;10.00;;;;;5.80;98199.00;;;;5032940;28;20387;-63
2023/12/06 09:06:47;;;;;;;11.73;9.20;;;;;5.80;98202.00;;;;5033352;28;20139;-63
2023/12/06 09:09:17;;;;;;;12.20;8.68;;;;;5.70;98207.00;;;;5033450;28;20180;-61
2023/12/06 09:11:44;;;;;;;14.00;9.82;;;;;5.70;98200.00;;;;5033472;28;20128;-63
2023/12/06 09:14:11;;;;;;;10.73;9.30;;;;;5.70;98207.00;;;;5032774;28;20041;-63
2023/12/06 09:16:39;;;;;;;13.82;9.57;;;;;5.70;98209.00;;;;5033810;28;20120;-63
2023/12/06 09:19:07;;;;;;;13.32;10.57;;;;;5.80;98219.00;;;;5032264;28;20091;-62
2023/12/06 09:21:43;;;;;;;14.65;10.50;;;;;5.80;98216.00;;;;5033949;28;20067;-63
2023/12/06 09:24:11;;;;;;;15.60;10.95;;;;;5.80;98216.00;;;;5033353;28;20102;-63
2023/12/06 09:26:38;;;;;;;17.13;12.82;;;;;5.90;98230.00;;;;5033326;28;20055;-63
2023/12/06 09:29:06;;;;;;;16.13;12.05;;;;;6.00;98225.00;;;;5033303;28;20124;-64
2023/12/06 09:31:33;;;;;;;14.38;9.95;;;;;6.00;98224.00;;;;5033545;28;20049;-63
2023/12/06 09:34:02;;;;;;;15.88;10.18;;;;;6.10;98239.00;;;;5032592;28;20285;-63
2023/12/06 09:36:29;;;;;;;15.85;10.32;;;;;6.10;98237.00;;;;5033016;28;20041;-63
2023/12/06 09:38:57;;;;;;;11.50;9.02;;;;;6.10;98239.00;;;;5033087;28;20050;-63
2023/12/06 09:41:29;;;;;;;10.98;8.52;;;;;6.10;98253.00;;;;5033076;28;20056;-64
2023/12/06 09:43:56;;;;;;;15.10;9.50;;;;;6.20;98246.00;;;;5032686;28;20103;-63
2023/12/06 09:46:23;;;;;;;10.25;9.15;;;;;6.10;98246.00;;;;5032981;28;20151;-63
2023/12/06 09:48:52;;;;;;;11.00;8.82;;;;;6.10;98250.00;;;;5032712;28;20444;-63
2023/12/06 09:51:20;;;;;;;13.25;8.75;;;;;6.20;98253.00;;;;5033130;28;20045;-63
2023/12/06 09:53:47;;;;;;;11.60;8.57;;;;;6.20;98239.00;;;;5031145;28;20554;-63
2023/12/06 09:56:14;;;;;;;10.98;7.75;;;;;6.30;98236.00;;;;5032835;28;20084;-63
2023/12/06 09:58:40;;;;;;;9.65;8.23;;;;;6.40;98249.00;;;;5031871;28;20502;-63
2023/12/06 10:01:08;;;;;;;9.88;8.13;;;;;6.50;98253.00;;;;5032846;28;20045;-63
2023/12/06 10:03:35;;;;;;;10.90;8.80;;;;;6.50;98259.00;;;;5032667;28;20045;-63
2023/12/06 10:06:05;;;;;;;10.45;8.18;;;;;6.60;98261.00;;;;5032361;28;20452;-63
2023/12/06 10:08:33;;;;;;;9.43;7.75;;;;;6.70;98265.00;;;;5033189;28;20461;-63
2023/12/06 10:11:01;;;;;;;10.55;7.28;;;;;6.60;98262.00;;;;5031704;28;20083;-63
2023/12/06 10:13:38;;;;;;;9.40;8.00;;;;;6.60;98268.00;;;;5032588;28;20045;-64
2023/12/06 10:16:16;;;;;;;9.55;7.57;;;;;6.60;98272.00;;;;5032046;28;20072;-64
2023/12/06 10:18:47;;;;;;;10.77;8.00;;;;;6.60;98274.00;;;;5033032;28;20486;-63
2023/12/06 10:21:14;;;;;;;10.10;7.80;;;;;6.70;98279.00;;;;5032494;28;20087;-64
2023/12/06 10:23:44;;;;;;;12.32;8.13;;;;;6.70;98278.00;;;;5032064;28;20046;-64
2023/12/06 10:26:15;;;;;;;9.63;7.05;;;;;6.60;98270.00;;;;5033106;28;20084;-63
2023/12/06 10:28:41;;;;;;;10.77;8.15;;;;;6.60;98273.00;;;;5033268;28;20512;-63
2023/12/06 10:31:08;;;;;;;10.75;8.35;;;;;6.60;98266.00;;;;5032352;28;20293;-64
2023/12/06 10:33:35;;;;;;;13.10;8.70;;;;;6.70;98270.00;;;;5031436;28;20042;-64
2023/12/06 10:36:04;;;;;;;10.57;8.60;;;;;6.70;98284.00;;;;5031031;28;20049;-63
2023/12/06 10:38:31;;;;;;;9.98;8.05;;;;;6.70;98281.00;;;;5032024;28;20095;-62
2023/12/06 10:41:04;;;;;;;11.10;8.10;;;;;6.70;98278.00;;;;5032099;28;20148;-61
2023/12/06 10:43:31;;;;;;;9.70;7.72;;;;;6.70;98279.00;;;;5032150;28;20548;-62
2023/12/06 10:45:59;;;;;;;12.65;8.20;;;;;6.70;98283.00;;;;5032326;28;20091;-63
2023/12/06 10:48:28;;;;;;;10.05;7.80;;;;;6.60;98285.00;;;;5032224;28;20068;-63
2023/12/06 10:50:57;;;;;;;11.55;7.60;;;;;6.60;98285.00;;;;5032291;28;20099;-63
2023/12/06 10:53:24;;;;;;;10.45;8.30;;;;;6.60;98282.00;;;;5031704;28;20073;-59
2023/12/06 10:55:50;;;;;;;11.57;8.45;;;;;6.60;98283.00;;;;5032507;28;20510;-63
2023/12/06 10:58:17;;;;;;;10.45;7.45;;;;;6.60;98284.00;;;;5030961;28;20038;-63
2023/12/06 11:00:46;;;;;;;13.65;7.75;;;;;6.60;98282.00;;;;5030794;28;20056;-63
2023/12/06 11:03:14;;;;;;;12.10;8.82;;;;;6.60;98284.00;;;;5032261;28;20132;-63
2023/12/06 11:05:44;;;;;;;13.60;8.98;;;;;6.70;98290.00;;;;5029909;28;20041;-64
2023/12/06 11:08:33;;;;;;;11.70;8.35;;;;;6.70;98289.00;;;;5031947;28;20517;-63
2023/12/06 11:11:30;;;;;;;9.43;7.97;;;;;6.80;98290.00;;;;5031895;28;20116;-64
2023/12/06 11:14:25;;;;;;;12.80;9.00;;;;;6.70;98290.00;;;;5031169;28;20383;-63
2023/12/06 11:17:37;;;;;;;11.57;8.73;;;;;6.70;98291.00;;;;5026369;28;20111;-64
2023/12/06 11:20:04;;;;;;;11.93;8.00;;;;;6.70;98289.00;;;;5035776;28;20128;-63
2023/12/06 11:22:31;;;;;;;12.02;8.32;;;;;6.70;98291.00;;;;5034338;28;20060;-59
2023/12/06 11:25:02;;;;;;;12.00;8.40;;;;;6.70;98284.00;;;;5035107;28;20048;-61
2023/12/06 11:27:29;;;;;;;12.75;7.97;;;;;6.70;98286.00;;;;5035638;28;20128;-60
2023/12/06 11:29:56;;;;;;;16.88;9.95;;;;;6.70;98287.00;;;;5035487;28;20073;-61
2023/12/06 11:32:22;;;;;;;11.85;8.93;;;;;6.80;98288.00;;;;5035961;28;20051;-61
2023/12/06 11:34:56;;;;;;;12.98;9.65;;;;;6.90;98292.00;;;;5034968;28;20038;-61
2023/12/06 11:37:25;;;;;;;11.52;7.90;;;;;6.90;98295.00;;;;5035775;28;20049;-60
2023/12/06 11:40:18;;;;;;;12.27;8.75;;;;;6.90;98286.00;;;;5034216;28;20379;-63
2023/12/06 11:42:56;;;;;;;12.13;8.60;;;;;7.00;98279.00;;;;5035538;28;20045;-64
2023/12/06 11:45:26;;;;;;;10.88;8.10;;;;;7.10;98285.00;;;;5034516;28;20403;-63
2023/12/06 11:47:53;;;;;;;11.65;8.15;;;;;7.10;98284.00;;;;5035195;28;20041;-64
2023/12/06 11:50:22;;;;;;;11.40;9.07;;;;;7.10;98278.00;;;;5035025;28;20045;-62
2023/12/06 11:52:49;;;;;;;11.52;8.60;;;;;7.10;98271.00;;;;5034866;28;20047;-62
2023/12/06 11:55:18;;;;;;;13.57;10.15;;;;;7.10;98273.00;;;;5034201;28;20052;-64
2023/12/06 11:58:01;;;;;;;14.25;8.43;;;;;7.10;98281.00;;;;5034923;28;20046;-64
2023/12/06 12:00:31;;;;;;;21.05;12.00;;;;;7.20;98270.00;;;;5034857;28;20498;-64
2023/12/06 12:03:00;;;;;;;17.25;11.10;;;;;7.20;98271.00;;;;5034813;28;20128;-64
2023/12/06 12:05:27;;;;;;;16.13;11.73;;;;;7.20;98265.00;;;;5034454;28;20084;-64
2023/12/06 12:07:55;;;;;;;13.63;9.73;;;;;7.10;98270.00;;;;5034636;28;20103;-64
2023/12/06 12:10:24;;;;;;;11.02;8.55;;;;;7.10;98288.00;;;;5034492;28;20421;-64
2023/12/06 12:12:51;;;;;;;11.20;8.60;;;;;7.10;98279.00;;;;5034561;28;20045;-64
2023/12/06 12:15:18;;;;;;;12.10;8.43;;;;;7.10;98295.00;;;;5034118;28;20041;-64
2023/12/06 12:17:45;;;;;;;11.55;8.23;;;;;7.00;98302.00;;;;5035756;28;20045;-63
2023/12/06 12:20:12;;;;;;;12.80;8.60;;;;;7.00;98308.00;;;;5035023;28;20422;-63
2023/12/06 12:22:59;;;;;;;11.98;8.15;;;;;7.00;98319.00;;;;5035900;28;20095;-61
2023/12/06 12:25:25;;;;;;;10.35;7.72;;;;;6.90;98334.00;;;;5035892;28;20048;-63